Terminal Aerodrome Forecast
Issued by NWS

Home | Current Version | Previous Version | Graphics & Text | Print | Product List | Glossary On
Versions: 1 2 3 4 5 6 7 8 9 10 11 12 13
000
FTUS45 KGGW 240520
TAFGDV
TAF
KGDV 240520Z 2406/2506 VRB03KT P6SM SCT110
     FM241200 23005KT P6SM BKN030
     FM241500 25009KT P6SM SCT021
     FM242200 28012KT P6SM SCT060
     FM250300 26006KT P6SM FEW100=

USA.gov is the U.S. government's official web portal to all federal, state and local government web resources and services.